Time;durP1;ratioP1;P1;durP2;ratioP2;P2;SDS_P1;SDS_P2;PMS_P1;PMS_P2;Temp;Humidity;BMP_temperature;BMP_pressure;BME280_temperature;BME280_humidity;BME280_pressure;Samples;Min_cycle;Max_cycle;Signal;HPM_P1;HPM_P2
2023/05/27 00:00:06;;;;;;;5.50;2.88;;;;;;;10.09;100.00;102454.66;6230032;23;20035;-81
2023/05/27 00:02:32;;;;;;;5.10;2.38;;;;;;;10.21;100.00;102468.84;6245898;23;20011;-81
2023/05/27 00:04:58;;;;;;;4.22;2.50;;;;;;;10.26;100.00;102479.22;6195465;23;20039;-80
2023/05/27 00:07:24;;;;;;;4.70;2.92;;;;;;;10.24;100.00;102468.63;6195615;23;20031;-81
2023/05/27 00:09:50;;;;;;;4.65;2.60;;;;;;;10.17;100.00;102464.75;6220732;23;20016;-80
2023/05/27 00:12:15;;;;;;;4.05;2.33;;;;;;;10.07;100.00;102463.81;6220518;23;20004;-80
2023/05/27 00:14:41;;;;;;;5.45;2.45;;;;;;;10.05;100.00;102463.94;6195613;23;20008;-80
2023/05/27 00:17:09;;;;;;;5.28;2.75;;;;;;;10.03;100.00;102475.81;6220595;23;20042;-80
2023/05/27 00:19:35;;;;;;;6.88;2.88;;;;;;;9.97;100.00;102466.44;6196763;23;20059;-80
2023/05/27 00:22:01;;;;;;;4.88;2.40;;;;;;;9.87;100.00;102461.00;6195403;23;20432;-80
2023/05/27 00:24:26;;;;;;;3.95;2.47;;;;;;;9.66;100.00;102426.06;6195464;23;20075;-80
2023/05/27 00:26:52;;;;;;;3.88;2.38;;;;;;;9.82;100.00;102460.53;6220510;23;20332;-80
2023/05/27 00:29:18;;;;;;;2.50;2.05;;;;;;;9.81;100.00;102455.28;6195330;23;20061;-80
2023/05/27 00:31:44;;;;;;;3.70;2.60;;;;;;;9.72;100.00;102451.53;6245719;23;20004;-81
2023/05/27 00:34:11;;;;;;;4.07;2.58;;;;;;;9.71;100.00;102460.56;6195308;23;20011;-80
2023/05/27 00:36:37;;;;;;;4.85;2.60;;;;;;;9.69;100.00;102457.19;6220517;23;20011;-80
2023/05/27 00:39:03;;;;;;;3.88;2.80;;;;;;;9.71;100.00;102449.81;6195461;23;20012;-81
2023/05/27 00:41:29;;;;;;;8.25;3.22;;;;;;;9.75;100.00;102453.13;6245662;23;20312;-81
2023/05/27 00:43:56;;;;;;;5.72;2.60;;;;;;;9.71;100.00;102444.44;6195114;23;20015;-81
2023/05/27 00:46:22;;;;;;;4.40;2.80;;;;;;;9.65;100.00;102439.59;6245512;23;20040;-80
2023/05/27 00:48:48;;;;;;;3.78;2.67;;;;;;;9.58;100.00;102431.22;6195170;23;20007;-81
2023/05/27 00:51:14;;;;;;;5.53;2.70;;;;;;;9.61;100.00;102455.13;6195084;23;20004;-80
2023/05/27 00:53:41;;;;;;;5.50;2.50;;;;;;;9.48;100.00;102430.28;6245326;23;20000;-80
2023/05/27 00:56:07;;;;;;;4.78;2.78;;;;;;;9.53;100.00;102449.53;6220237;23;20075;-80
2023/05/27 00:58:34;;;;;;;5.30;2.88;;;;;;;9.49;100.00;102449.91;6220336;23;19997;-80
2023/05/27 01:01:01;;;;;;;3.40;2.40;;;;;;;9.47;100.00;102441.97;6195211;23;20015;-80
2023/05/27 01:03:28;;;;;;;4.90;2.67;;;;;;;9.44;100.00;102444.91;6194946;23;20004;-81
2023/05/27 01:06:01;;;;;;;4.32;2.45;;;;;;;9.38;100.00;102440.91;6195513;23;20008;-81
2023/05/27 01:08:31;;;;;;;4.32;2.65;;;;;;;9.27;100.00;102437.44;6194954;23;20015;-80
2023/05/27 01:10:57;;;;;;;3.55;2.42;;;;;;;9.17;100.00;102437.31;6220191;23;20016;-80
2023/05/27 01:13:29;;;;;;;4.55;3.00;;;;;;;9.15;100.00;102437.44;6219865;23;20428;-80
2023/05/27 01:15:55;;;;;;;3.25;2.42;;;;;;;9.03;100.00;102428.56;6219762;23;20058;-80
2023/05/27 01:18:22;;;;;;;4.13;2.55;;;;;;;8.96;100.00;102439.91;6194897;23;20004;-81
2023/05/27 01:20:51;;;;;;;4.10;2.70;;;;;;;8.86;100.00;102433.56;6245024;23;20107;-81
2023/05/27 01:23:17;;;;;;;3.70;2.03;;;;;;;8.82;100.00;102437.50;6220033;23;20000;-82
2023/05/27 01:25:43;;;;;;;3.33;2.30;;;;;;;8.79;100.00;102434.09;6220097;23;20008;-81
2023/05/27 01:28:08;;;;;;;5.85;2.60;;;;;;;8.79;100.00;102435.91;6194892;23;20008;-80
2023/05/27 01:30:35;;;;;;;3.33;2.30;;;;;;;8.74;100.00;102419.34;6219942;23;20004;-80
2023/05/27 01:33:04;;;;;;;3.10;2.30;;;;;;;8.72;100.00;102423.97;6220040;23;20045;-81
2023/05/27 01:35:45;;;;;;;4.90;2.42;;;;;;;8.68;100.00;102428.72;6219687;23;20083;-81
2023/05/27 01:38:13;;;;;;;5.50;2.50;;;;;;;8.59;100.00;102419.56;6220304;23;20008;-80
2023/05/27 01:40:39;;;;;;;4.25;2.80;;;;;;;8.56;100.00;102414.47;6245184;23;20007;-81
2023/05/27 01:43:07;;;;;;;5.10;2.35;;;;;;;8.56;100.00;102417.13;6219853;23;20088;-81
2023/05/27 01:45:34;;;;;;;3.28;2.28;;;;;;;8.57;100.00;102424.22;6194837;23;20062;-81
2023/05/27 01:48:00;;;;;;;5.80;2.58;;;;;;;8.56;100.00;102422.50;6219842;23;20015;-82
2023/05/27 01:50:26;;;;;;;5.85;2.40;;;;;;;8.53;100.00;102420.06;6194580;23;20000;-81
2023/05/27 01:52:51;;;;;;;5.57;2.67;;;;;;;8.51;100.00;102421.16;6194492;23;20015;-81
2023/05/27 01:55:17;;;;;;;3.90;2.30;;;;;;;8.47;100.00;102419.72;6194573;23;20095;-82
2023/05/27 01:57:43;;;;;;;3.80;2.35;;;;;;;8.46;100.00;102418.00;6219743;23;20004;-81
2023/05/27 02:00:09;;;;;;;5.13;2.83;;;;;;;8.45;100.00;102416.28;6219487;23;20086;-79
2023/05/27 02:02:36;;;;;;;7.25;3.05;;;;;;;8.43;100.00;102416.41;6219299;23;20004;-82
2023/05/27 02:05:02;;;;;;;4.82;2.83;;;;;;;8.45;100.00;102421.66;6245021;23;20011;-82
2023/05/27 02:07:28;;;;;;;4.50;2.75;;;;;;;8.47;100.00;102398.28;6219518;23;20424;-80
2023/05/27 02:09:53;;;;;;;5.82;2.92;;;;;;;8.47;100.00;102404.47;6194475;23;20003;-81
2023/05/27 02:12:19;;;;;;;5.32;2.47;;;;;;;8.45;100.00;102411.78;6194591;23;20049;-80
2023/05/27 02:14:45;;;;;;;6.45;3.17;;;;;;;8.41;100.00;102404.09;6194665;23;20004;-80
2023/05/27 02:17:14;;;;;;;6.35;2.70;;;;;;;8.28;100.00;102394.34;6194533;23;20047;-80
2023/05/27 02:19:40;;;;;;;4.15;2.63;;;;;;;8.36;100.00;102397.25;6219931;23;20042;-81
2023/05/27 02:22:06;;;;;;;6.63;3.17;;;;;;;8.33;100.00;102402.84;6219593;23;20329;-81
2023/05/27 02:24:32;;;;;;;4.22;2.88;;;;;;;8.31;100.00;102393.25;6219578;23;20004;-80
2023/05/27 02:26:58;;;;;;;5.68;3.05;;;;;;;8.28;100.00;102397.00;6195811;23;20420;-80
2023/05/27 02:29:24;;;;;;;4.20;2.75;;;;;;;8.23;100.00;102404.56;6246893;23;20004;-80
2023/05/27 02:31:50;;;;;;;3.67;2.40;;;;;;;8.19;100.00;102395.03;6221570;23;20019;-81
2023/05/27 02:34:18;;;;;;;6.10;2.88;;;;;;;8.19;100.00;102399.56;6196462;23;20432;-81
2023/05/27 02:36:43;;;;;;;4.18;2.95;;;;;;;8.17;100.00;102396.13;6196603;23;20340;-81
2023/05/27 02:39:10;;;;;;;4.32;2.92;;;;;;;8.19;100.00;102400.41;6196362;23;20433;-82
2023/05/27 02:41:36;;;;;;;4.10;2.80;;;;;;;8.14;100.00;102395.38;6221535;23;20000;-80
2023/05/27 02:44:02;;;;;;;4.88;2.50;;;;;;;8.13;100.00;102387.50;6196172;23;20016;-79
2023/05/27 02:46:28;;;;;;;4.18;2.47;;;;;;;8.08;100.00;102387.00;6196418;23;20004;-80
2023/05/27 02:48:54;;;;;;;3.90;2.65;;;;;;;8.08;100.00;102377.13;6196265;23;20016;-82
2023/05/27 02:51:21;;;;;;;3.20;2.40;;;;;;;8.07;100.00;102385.25;6221349;23;20379;-80
2023/05/27 02:53:47;;;;;;;4.90;2.53;;;;;;;8.02;100.00;102372.25;6196384;23;20008;-81
2023/05/27 02:56:12;;;;;;;6.15;2.67;;;;;;;7.99;100.00;102364.47;6196252;23;20459;-82
2023/05/27 02:58:40;;;;;;;5.13;2.70;;;;;;;7.95;100.00;102364.81;6246636;23;20004;-82
2023/05/27 03:01:06;;;;;;;3.47;2.17;;;;;;;7.93;100.00;102371.13;6196558;23;20019;-82
2023/05/27 03:03:32;;;;;;;4.43;2.92;;;;;;;7.90;100.00;102373.19;6195917;23;20009;-82
2023/05/27 03:05:57;;;;;;;6.55;2.83;;;;;;;7.90;100.00;102374.03;6196214;23;20016;-82
2023/05/27 03:08:23;;;;;;;4.00;2.67;;;;;;;7.96;100.00;102366.50;6221132;23;20391;-80
2023/05/27 03:10:48;;;;;;;4.85;2.63;;;;;;;8.09;100.00;102361.91;6196204;23;20004;-81
2023/05/27 03:13:14;;;;;;;6.00;3.13;;;;;;;8.15;100.00;102356.06;6196217;23;20008;-81
2023/05/27 03:15:40;;;;;;;5.35;2.83;;;;;;;8.18;100.00;102358.50;6221291;23;20011;-81
2023/05/27 03:18:06;;;;;;;3.70;2.60;;;;;;;8.19;100.00;102352.16;6196100;23;20420;-81
2023/05/27 03:20:31;;;;;;;3.95;2.50;;;;;;;8.15;100.00;102367.66;6221214;23;20416;-81
2023/05/27 03:22:57;;;;;;;3.22;2.50;;;;;;;8.02;100.00;102363.34;6195985;23;20324;-81
2023/05/27 03:25:23;;;;;;;6.88;3.03;;;;;;;7.86;100.00;102361.03;6195962;23;20070;-81
2023/05/27 03:27:48;;;;;;;6.65;3.60;;;;;;;7.84;100.00;102363.81;6195991;23;20004;-80
2023/05/27 03:30:14;;;;;;;4.65;3.08;;;;;;;7.78;100.00;102358.94;6220297;23;20008;-80
2023/05/27 03:32:40;;;;;;;4.15;2.85;;;;;;;7.80;100.00;102351.63;6195985;23;20012;-81
2023/05/27 03:35:06;;;;;;;5.85;2.90;;;;;;;7.89;100.00;102348.25;6195927;23;20012;-81
2023/05/27 03:37:32;;;;;;;5.60;2.75;;;;;;;7.86;100.00;102351.16;6195703;23;20023;-80
2023/05/27 03:39:57;;;;;;;5.50;3.17;;;;;;;7.71;100.00;102345.16;6247804;22;20336;-83
2023/05/27 03:42:23;;;;;;;4.85;2.58;;;;;;;7.59;100.00;102345.25;6195663;23;20008;-82
2023/05/27 03:44:49;;;;;;;5.03;2.55;;;;;;;7.54;100.00;102347.41;6195942;23;20087;-82
2023/05/27 03:47:17;;;;;;;4.75;2.60;;;;;;;7.47;100.00;102345.22;6195788;23;20004;-81
2023/05/27 03:49:43;;;;;;;5.78;2.72;;;;;;;7.39;100.00;102341.44;6221130;23;20004;-81
2023/05/27 03:52:09;;;;;;;5.68;2.75;;;;;;;7.34;100.00;102341.75;6195724;23;20015;-81
2023/05/27 03:54:34;;;;;;;3.30;2.60;;;;;;;7.33;100.00;102336.50;6195751;23;20008;-82
2023/05/27 03:57:01;;;;;;;4.95;2.20;;;;;;;7.29;100.00;102341.25;6195696;23;20006;-82
2023/05/27 03:59:26;;;;;;;5.88;2.55;;;;;;;7.26;100.00;102328.97;6195438;23;20020;-82
2023/05/27 04:01:52;;;;;;;3.78;2.50;;;;;;;7.27;100.00;102327.13;6195569;23;20008;-82
2023/05/27 04:04:18;;;;;;;3.70;2.15;;;;;;;7.28;100.00;102334.22;6220603;23;20001;-82
2023/05/27 04:06:44;;;;;;;3.83;2.10;;;;;;;7.24;100.00;102330.91;6195624;23;20008;-81
2023/05/27 04:09:09;;;;;;;5.05;2.63;;;;;;;7.18;100.00;102335.88;6195634;23;20011;-81
2023/05/27 04:11:35;;;;;;;3.83;2.55;;;;;;;7.11;100.00;102332.78;6195504;23;20003;-81
2023/05/27 04:14:01;;;;;;;3.97;2.45;;;;;;;7.10;100.00;102339.13;6195702;23;20024;-81
2023/05/27 04:16:30;;;;;;;4.78;2.20;;;;;;;7.16;100.00;102335.13;6195520;23;20012;-81
2023/05/27 04:18:56;;;;;;;5.68;2.55;;;;;;;7.29;100.00;102329.72;6221201;23;20332;-81
2023/05/27 04:21:22;;;;;;;3.70;2.42;;;;;;;7.33;100.00;102326.69;6220464;23;20058;-80
2023/05/27 04:23:48;;;;;;;5.68;2.65;;;;;;;7.42;100.00;102327.81;6195453;23;20004;-80
2023/05/27 04:26:14;;;;;;;4.28;2.75;;;;;;;7.35;100.00;102316.69;6195293;23;20012;-82
2023/05/27 04:28:40;;;;;;;4.13;2.60;;;;;;;7.34;100.00;102316.84;6220524;23;20071;-81
2023/05/27 04:31:12;;;;;;;2.53;1.88;;;;;;;7.30;100.00;102323.38;6195501;23;20011;-80
2023/05/27 04:33:41;;;;;;;3.75;2.30;;;;;;;7.23;100.00;102313.16;6221417;23;20038;-81
2023/05/27 04:36:08;;;;;;;4.45;2.90;;;;;;;7.24;100.00;102324.69;6220593;23;20080;-81
2023/05/27 04:38:33;;;;;;;3.75;2.28;;;;;;;7.13;100.00;102314.81;6170252;23;20004;-81
2023/05/27 04:41:00;;;;;;;3.60;2.50;;;;;;;7.14;100.00;102324.53;6194696;23;20082;-81
2023/05/27 04:43:27;;;;;;;4.88;2.25;;;;;;;7.08;100.00;102326.81;6246539;22;20367;-81
2023/05/27 04:45:53;;;;;;;3.10;2.28;;;;;;;7.02;100.00;102320.97;6195183;23;20015;-81
2023/05/27 04:48:23;;;;;;;4.57;2.22;;;;;;;7.07;100.00;102322.44;6194835;23;20094;-82
2023/05/27 04:50:48;;;;;;;5.32;2.75;;;;;;;7.11;100.00;102330.09;6245516;23;20011;-80
2023/05/27 04:53:16;;;;;;;3.88;2.60;;;;;;;7.25;100.00;102323.72;6195046;23;20008;-81
2023/05/27 04:55:42;;;;;;;5.78;3.05;;;;;;;7.35;100.00;102319.38;6220612;23;20020;-80
2023/05/27 04:58:07;;;;;;;5.65;2.90;;;;;;;7.46;100.00;102315.88;6220180;23;20325;-80
2023/05/27 05:00:38;;;;;;;5.68;2.80;;;;;;;7.51;100.00;102319.06;6219942;23;20010;-81
2023/05/27 05:03:05;;;;;;;4.75;2.75;;;;;;;7.62;100.00;102310.19;6220859;23;20035;-81
2023/05/27 05:05:31;;;;;;;4.85;2.78;;;;;;;7.69;100.00;102309.59;6244579;23;20012;-81
2023/05/27 05:07:57;;;;;;;4.82;3.15;;;;;;;7.82;100.00;102316.69;6194957;23;20066;-81
2023/05/27 05:10:23;;;;;;;4.35;2.95;;;;;;;7.82;100.00;102290.78;6219828;23;20036;-80
2023/05/27 05:12:49;;;;;;;4.32;2.92;;;;;;;8.50;100.00;102309.56;6170151;23;20015;-80
2023/05/27 05:15:15;;;;;;;6.50;3.30;;;;;;;9.24;100.00;102318.59;6194980;23;20024;-80
2023/05/27 05:17:41;;;;;;;5.57;3.20;;;;;;;9.34;100.00;102315.13;6194951;23;20057;-80
2023/05/27 05:20:08;;;;;;;4.80;3.42;;;;;;;9.31;100.00;102315.38;6195020;23;20034;-81
2023/05/27 05:22:34;;;;;;;7.85;3.28;;;;;;;9.97;100.00;102310.56;6245082;23;20119;-80
2023/05/27 05:25:01;;;;;;;6.18;3.63;;;;;;;10.77;100.00;102316.97;6219587;23;20000;-79
2023/05/27 05:27:27;;;;;;;5.72;3.97;;;;;;;11.48;100.00;102308.59;6194755;23;20008;-81
2023/05/27 05:29:53;;;;;;;5.50;3.53;;;;;;;11.96;100.00;102310.41;6245203;23;20008;-80
2023/05/27 05:32:19;;;;;;;6.38;3.45;;;;;;;11.52;100.00;102299.25;6194840;23;20481;-80
2023/05/27 05:34:45;;;;;;;5.53;3.47;;;;;;;11.11;100.00;102313.88;6194791;23;20004;-81
2023/05/27 05:37:11;;;;;;;6.03;3.30;;;;;;;10.86;100.00;102308.06;6194717;23;20081;-81
2023/05/27 05:39:37;;;;;;;5.00;3.05;;;;;;;11.26;100.00;102298.16;6219581;23;20000;-82
2023/05/27 05:42:03;;;;;;;4.68;3.20;;;;;;;12.28;100.00;102291.09;6194774;23;20083;-81
2023/05/27 05:44:29;;;;;;;8.57;3.80;;;;;;;13.17;100.00;102294.91;6194814;23;20484;-81
2023/05/27 05:46:54;;;;;;;4.95;3.53;;;;;;;13.95;100.00;102296.88;6194748;23;20028;-80
2023/05/27 05:49:20;;;;;;;4.47;3.20;;;;;;;14.71;100.00;102309.53;6194468;23;20012;-81
2023/05/27 05:51:46;;;;;;;5.65;3.42;;;;;;;15.25;100.00;102290.16;6194686;23;20448;-81
2023/05/27 05:54:12;;;;;;;6.60;3.17;;;;;;;15.92;100.00;102304.31;6194718;23;20012;-79
2023/05/27 05:56:37;;;;;;;6.30;3.38;;;;;;;16.37;100.00;102305.53;6194621;23;20036;-79
2023/05/27 05:59:03;;;;;;;4.90;3.38;;;;;;;16.82;100.00;102308.56;6219540;23;20081;-79
2023/05/27 06:01:29;;;;;;;3.78;2.97;;;;;;;17.29;100.00;102304.81;6172523;23;20387;-81
2023/05/27 06:03:56;;;;;;;3.60;2.92;;;;;;;17.69;100.00;102305.47;6172916;23;20139;-81
2023/05/27 06:06:22;;;;;;;4.57;2.92;;;;;;;17.82;98.89;102288.56;6148914;23;20039;-79
2023/05/27 06:08:47;;;;;;;5.63;3.17;;;;;;;18.05;97.83;102307.50;6197666;23;20424;-79
2023/05/27 06:11:13;;;;;;;4.03;2.85;;;;;;;18.38;97.96;102306.06;6173123;23;20328;-80
2023/05/27 06:13:39;;;;;;;4.95;3.08;;;;;;;18.79;96.81;102308.28;6173072;23;20081;-79
2023/05/27 06:16:05;;;;;;;3.95;3.08;;;;;;;19.28;93.61;102310.22;6148626;23;20020;-80
2023/05/27 06:18:31;;;;;;;4.97;3.20;;;;;;;19.60;90.48;102305.25;6197641;23;20008;-79
2023/05/27 06:20:57;;;;;;;5.30;3.30;;;;;;;19.96;89.22;102296.09;6173131;23;20487;-80
2023/05/27 06:23:22;;;;;;;4.43;2.95;;;;;;;20.31;85.52;102310.56;6172996;23;20067;-79
2023/05/27 06:25:48;;;;;;;5.60;3.33;;;;;;;20.52;85.41;102303.31;6197765;23;20008;-79
2023/05/27 06:28:14;;;;;;;6.07;3.13;;;;;;;20.81;84.38;102293.97;6173070;23;20004;-80
2023/05/27 06:30:40;;;;;;;5.55;2.80;;;;;;;21.13;78.45;102297.81;6198043;23;20004;-80
2023/05/27 06:33:06;;;;;;;5.68;4.00;;;;;;;21.22;78.82;102295.69;6172990;23;20012;-80
2023/05/27 06:35:32;;;;;;;4.72;3.92;;;;;;;21.39;76.97;102297.00;6222763;23;20014;-80
2023/05/27 06:38:00;;;;;;;5.72;3.60;;;;;;;21.53;77.92;102295.09;6173027;23;20395;-80
2023/05/27 06:40:26;;;;;;;4.43;3.55;;;;;;;21.75;77.25;102290.22;6172944;23;20000;-80
2023/05/27 06:42:53;;;;;;;5.22;3.22;;;;;;;21.89;75.26;102267.25;6172705;23;20011;-80
2023/05/27 06:45:19;;;;;;;6.78;3.50;;;;;;;22.26;75.29;102291.41;6172877;23;20086;-81
2023/05/27 06:47:45;;;;;;;4.43;3.00;;;;;;;22.74;74.35;102294.56;6172790;23;20036;-81
2023/05/27 06:50:11;;;;;;;3.75;2.63;;;;;;;23.14;69.84;102297.06;6197756;23;20349;-81
2023/05/27 06:52:36;;;;;;;6.75;3.42;;;;;;;23.22;67.95;102290.47;6172816;23;20099;-80
2023/05/27 06:55:02;;;;;;;4.07;3.20;;;;;;;23.48;67.84;102289.41;6172805;23;20420;-81
2023/05/27 06:57:28;;;;;;;3.42;2.60;;;;;;;23.76;65.47;102279.88;6172797;23;20042;-80
2023/05/27 06:59:55;;;;;;;6.95;3.53;;;;;;;23.92;65.98;102287.50;6179545;23;20022;-82
2023/05/27 07:02:21;;;;;;;4.07;3.10;;;;;;;24.40;63.59;102283.13;6197675;23;20007;-81
2023/05/27 07:04:47;;;;;;;4.05;2.83;;;;;;;24.73;62.21;102283.56;6222274;23;20004;-81
2023/05/27 07:07:13;;;;;;;4.75;3.10;;;;;;;24.91;60.17;102271.66;6197445;23;20427;-81
2023/05/27 07:09:38;;;;;;;5.88;2.80;;;;;;;25.32;56.31;102271.88;6197474;23;20065;-81
2023/05/27 07:12:06;;;;;;;3.92;3.13;;;;;;;25.51;57.67;102269.84;6196424;23;20062;-81
2023/05/27 07:14:33;;;;;;;4.15;3.05;;;;;;;25.66;55.07;102268.28;6196949;23;20050;-82
2023/05/27 07:16:58;;;;;;;4.25;3.03;;;;;;;25.76;55.23;102270.44;6171181;23;20027;-81
2023/05/27 07:19:24;;;;;;;3.00;2.70;;;;;;;26.16;56.16;102266.94;6195838;23;20008;-82
2023/05/27 07:21:50;;;;;;;4.90;3.10;;;;;;;26.48;52.92;102271.97;6195742;23;20008;-81
2023/05/27 07:24:16;;;;;;;4.30;2.58;;;;;;;26.72;51.49;102264.47;6195713;23;20004;-82
2023/05/27 07:26:42;;;;;;;4.13;2.38;;;;;;;26.94;49.83;102261.84;6195803;23;20015;-81
2023/05/27 07:29:08;;;;;;;3.42;2.20;;;;;;;27.29;48.39;102260.78;6220612;23;20000;-81
2023/05/27 07:31:34;;;;;;;4.07;2.45;;;;;;;27.28;47.54;102276.50;6220629;23;20094;-81
2023/05/27 07:34:00;;;;;;;3.35;2.50;;;;;;;27.82;48.48;102275.97;6220448;23;20077;-81
2023/05/27 07:36:25;;;;;;;3.90;2.33;;;;;;;28.35;45.20;102263.38;6195668;23;20011;-82
2023/05/27 07:38:51;;;;;;;7.57;2.70;;;;;;;28.81;45.54;102274.97;6195675;23;20011;-82
2023/05/27 07:41:20;;;;;;;4.63;2.80;;;;;;;29.24;42.78;102272.31;6195711;23;20085;-82
2023/05/27 07:43:46;;;;;;;3.33;2.35;;;;;;;29.27;42.16;102277.34;6220918;23;20015;-80
2023/05/27 07:46:11;;;;;;;6.03;3.08;;;;;;;29.04;41.85;102267.44;6195838;23;20015;-82
2023/05/27 07:48:37;;;;;;;3.45;2.55;;;;;;;28.78;42.23;102264.41;6195813;23;20015;-83
2023/05/27 07:51:03;;;;;;;3.55;2.55;;;;;;;28.64;42.11;102261.25;6247113;23;20000;-82
2023/05/27 07:53:29;;;;;;;3.65;2.67;;;;;;;28.55;42.53;102267.50;6245716;23;20085;-82
2023/05/27 07:55:54;;;;;;;4.72;2.80;;;;;;;28.67;41.28;102269.00;6220664;23;20360;-82
2023/05/27 07:58:20;;;;;;;3.28;2.50;;;;;;;28.83;40.80;102264.47;6195708;23;20101;-82
2023/05/27 08:00:46;;;;;;;7.25;2.42;;;;;;;28.73;40.71;102261.59;6195552;23;20008;-82
2023/05/27 08:03:11;;;;;;;6.78;2.90;;;;;;;29.01;41.57;102260.47;6247373;23;20008;-83
2023/05/27 08:05:39;;;;;;;3.67;2.80;;;;;;;29.48;39.64;102261.69;6195514;23;20008;-82
2023/05/27 08:08:05;;;;;;;3.42;2.45;;;;;;;29.63;39.17;102259.00;6221020;23;20008;-82
2023/05/27 08:10:30;;;;;;;3.47;2.38;;;;;;;30.21;38.34;102265.41;6195535;23;20008;-82
2023/05/27 08:12:56;;;;;;;5.05;2.30;;;;;;;30.72;36.63;102258.34;6194767;23;20041;-82
2023/05/27 08:15:22;;;;;;;3.63;2.20;;;;;;;30.94;35.90;102261.75;6195541;23;20455;-82
2023/05/27 08:17:48;;;;;;;5.85;2.60;;;;;;;31.02;35.35;102263.97;6195493;23;20016;-82
2023/05/27 08:20:13;;;;;;;3.90;2.70;;;;;;;31.02;35.58;102257.59;6195236;23;20008;-83
2023/05/27 08:22:41;;;;;;;5.18;2.30;;;;;;;30.93;35.97;102260.06;6220347;23;20073;-82
2023/05/27 08:25:07;;;;;;;4.13;2.15;;;;;;;30.79;35.76;102247.81;6193998;23;20031;-83
2023/05/27 08:27:50;;;;;;;2.90;2.13;;;;;;;31.30;34.54;102264.50;6195134;23;20428;-82
2023/05/27 08:30:16;;;;;;;4.88;2.30;;;;;;;31.54;33.79;102262.84;6221620;23;20387;-92
2023/05/27 08:32:42;;;;;;;3.22;2.22;;;;;;;31.93;33.06;102261.34;6195373;23;20027;-83
2023/05/27 08:35:08;;;;;;;3.63;2.17;;;;;;;31.54;34.60;102259.22;6245903;22;20004;-79
2023/05/27 08:37:34;;;;;;;4.50;2.40;;;;;;;31.46;34.15;102248.66;6245608;23;20008;-78
2023/05/27 08:40:00;;;;;;;4.53;2.38;;;;;;;31.50;33.96;102253.38;6245769;23;20004;-78
2023/05/27 08:42:26;;;;;;;4.32;2.20;;;;;;;31.59;32.88;102261.16;6220055;23;20011;-78
2023/05/27 08:44:52;;;;;;;4.22;2.08;;;;;;;31.75;33.33;102238.56;6219912;23;20375;-79
2023/05/27 08:47:18;;;;;;;4.13;2.00;;;;;;;32.07;31.62;102253.22;6219853;23;20027;-78
2023/05/27 08:49:47;;;;;;;4.03;2.60;;;;;;;32.26;33.22;102253.41;6245233;23;20023;-78
2023/05/27 08:52:19;;;;;;;5.25;2.20;;;;;;;32.69;31.22;102256.53;6246993;23;20431;-78
2023/05/27 08:54:45;;;;;;;4.15;2.22;;;;;;;32.89;30.02;102255.53;6220317;23;20023;-78
2023/05/27 08:57:12;;;;;;;3.08;2.22;;;;;;;32.45;30.29;102250.81;6245035;23;20000;-80
2023/05/27 08:59:39;;;;;;;4.35;2.30;;;;;;;31.10;33.57;102257.84;6243927;23;20083;-80
2023/05/27 09:02:11;;;;;;;2.80;1.90;;;;;;;30.49;34.17;102256.94;6245150;23;20011;-80
2023/05/27 09:04:38;;;;;;;;;;;;;;;31.57;33.56;102257.81;6245679;23;20050;-77
2023/05/27 09:07:03;;;;;;;2.17;1.70;;;;;;;32.39;29.96;102248.06;6219939;23;19914;-79
2023/05/27 09:09:29;;;;;;;2.60;2.00;;;;;;;30.17;32.78;102247.66;6219831;23;20004;-79
2023/05/27 09:11:59;;;;;;;3.03;1.95;;;;;;;28.16;35.80;102242.69;6219618;23;20048;-79
2023/05/27 09:14:28;;;;;;;4.20;2.03;;;;;;;26.74;39.38;102241.06;6220066;23;20031;-79
2023/05/27 09:16:54;;;;;;;4.05;1.98;;;;;;;28.24;38.26;102251.38;6194875;23;20011;-79
2023/05/27 09:19:20;;;;;;;3.67;1.60;;;;;;;27.37;38.21;102241.03;6245105;23;20017;-79
2023/05/27 09:21:45;;;;;;;4.20;2.00;;;;;;;26.50;39.89;102239.47;6245028;23;20011;-78
2023/05/27 09:24:11;;;;;;;3.33;1.60;;;;;;;26.10;41.14;102243.09;6194813;23;20004;-78
2023/05/27 09:26:38;;;;;;;3.35;1.60;;;;;;;25.58;41.92;102237.53;6194836;23;20336;-79
2023/05/27 09:29:07;;;;;;;4.78;2.28;;;;;;;24.89;43.05;102239.94;6244878;23;20000;-78
2023/05/27 09:31:41;;;;;;;2.63;1.85;;;;;;;24.32;45.20;102237.59;6245008;23;20008;-78
2023/05/27 09:34:14;;;;;;;2.88;1.95;;;;;;;24.05;46.04;102240.66;6219562;23;20428;-78
2023/05/27 09:36:47;;;;;;;;;;;;;;;24.01;46.47;102242.19;6194914;23;20314;-79
2023/05/27 09:39:20;;;;;;;2.78;1.85;;;;;;;23.96;47.97;102238.47;6219585;23;19907;-78
2023/05/27 09:41:56;;;;;;;4.38;1.90;;;;;;;23.51;49.39;102245.03;6194555;23;20004;-78
2023/05/27 09:44:31;;;;;;;2.33;1.90;;;;;;;23.10;49.79;102240.97;6194463;23;20058;-78
2023/05/27 09:46:58;;;;;;;2.10;1.70;;;;;;;22.80;51.25;102249.78;6195073;23;20009;-78
2023/05/27 09:49:27;;;;;;;3.58;1.90;;;;;;;22.54;51.73;102238.97;6244775;23;20008;-77
2023/05/27 09:51:53;;;;;;;3.92;2.10;;;;;;;22.72;52.76;102243.72;6245990;22;20453;-77
2023/05/27 09:54:19;;;;;;;3.20;2.20;;;;;;;22.76;52.33;102221.13;6244475;23;20047;-78
2023/05/27 09:56:48;;;;;;;5.70;1.90;;;;;;;23.22;52.58;102241.06;6219347;23;20004;-81
2023/05/27 09:59:13;;;;;;;3.92;1.83;;;;;;;23.31;51.11;102242.44;6194560;23;20011;-81
2023/05/27 10:01:40;;;;;;;3.80;1.90;;;;;;;23.46;50.65;102236.63;6169534;23;20030;-80
2023/05/27 10:04:06;;;;;;;5.28;2.05;;;;;;;23.54;49.76;102236.34;6246262;23;20000;-80
2023/05/27 10:06:33;;;;;;;3.75;2.10;;;;;;;23.93;50.24;102242.50;6194140;23;20340;-79
2023/05/27 10:09:01;;;;;;;4.25;2.40;;;;;;;25.95;47.46;102232.59;6193875;23;20016;-79
2023/05/27 10:11:31;;;;;;;5.43;2.50;;;;;;;28.82;40.91;102237.88;6169810;23;20458;-79
2023/05/27 10:13:56;;;;;;;2.17;1.98;;;;;;;31.67;35.08;102229.97;6219208;23;20057;-81
2023/05/27 10:16:23;;;;;;;2.72;1.90;;;;;;;33.35;30.54;102227.28;6169518;23;20444;-80
2023/05/27 10:18:53;;;;;;;2.00;1.80;;;;;;;33.90;28.82;102225.00;6218906;23;20004;-79
2023/05/27 10:21:26;;;;;;;2.60;1.80;;;;;;;34.38;28.87;102227.72;6219513;23;20486;-80
2023/05/27 10:24:01;;;;;;;;;;;;;;;35.25;27.71;102231.91;6170841;23;20000;-78
2023/05/27 10:26:36;;;;;;;2.10;1.70;;;;;;;35.62;26.31;102239.31;6218965;23;20231;-82
2023/05/27 10:29:12;;;;;;;1.35;1.00;;;;;;;32.14;28.24;102217.59;6218713;23;20023;-80
2023/05/27 10:31:51;;;;;;;2.10;1.45;;;;;;;28.96;32.40;102209.75;6218992;23;20026;-80
2023/05/27 10:34:17;;;;;;;2.65;1.52;;;;;;;26.93;36.79;102222.34;6219056;23;20034;-81
2023/05/27 10:36:47;;;;;;;4.03;3.63;;;;;;;28.11;37.65;102220.50;6194002;23;20098;-79
2023/05/27 10:39:15;;;;;;;2.80;1.90;;;;;;;31.05;32.18;102218.97;6145357;23;20015;-79
2023/05/27 10:41:51;;;;;;;2.30;1.88;;;;;;;33.05;30.02;102213.34;6219015;23;20320;-78
2023/05/27 10:44:30;;;;;;;5.28;2.28;;;;;;;33.60;27.88;102210.28;6194116;23;20015;-78
2023/05/27 10:47:01;;;;;;;2.58;1.90;;;;;;;33.97;27.92;102197.53;6246040;23;19996;-79
2023/05/27 10:49:35;;;;;;;2.17;1.80;;;;;;;33.21;29.54;102200.09;6248016;23;20447;-79
2023/05/27 10:52:17;;;;;;;2.75;1.80;;;;;;;34.77;25.47;102209.78;6221157;23;20428;-79
2023/05/27 10:54:47;;;;;;;4.75;1.65;;;;;;;33.51;25.54;102189.72;6221545;23;20424;-78
2023/05/27 10:57:13;;;;;;;2.05;1.50;;;;;;;34.81;24.33;102180.09;6196284;23;20011;-79
2023/05/27 10:59:49;;;;;;;3.50;1.92;;;;;;;35.70;24.04;102198.59;6224545;23;20314;-78
2023/05/27 11:02:20;;;;;;;1.75;1.20;;;;;;;35.44;23.94;102192.66;6246673;23;20004;-78
2023/05/27 11:04:48;;;;;;;2.42;1.50;;;;;;;31.49;27.00;102190.59;6195782;23;20313;-79
2023/05/27 11:07:18;;;;;;;1.90;1.20;;;;;;;28.60;30.38;102182.59;6220509;23;20004;-79
2023/05/27 11:09:47;;;;;;;2.78;1.50;;;;;;;30.58;29.78;102186.72;6220289;23;20004;-78
2023/05/27 11:12:17;;;;;;;2.28;1.80;;;;;;;33.30;25.80;102174.38;6245516;23;20035;-79
2023/05/27 11:14:48;;;;;;;2.10;1.58;;;;;;;34.54;22.56;102173.25;6245739;23;20008;-78
2023/05/27 11:17:14;;;;;;;1.73;1.52;;;;;;;34.94;23.16;102173.72;6195203;23;20004;-78
2023/05/27 11:19:41;;;;;;;3.03;1.60;;;;;;;35.77;22.14;102165.41;6245649;23;20000;-79
2023/05/27 11:22:11;;;;;;;1.80;1.33;;;;;;;36.19;21.74;102171.75;6220508;23;20008;-83